sensor_id;sensor_type;location;lat;lon;timestamp;temperature;humidity
8105;DHT22;4095;48.942;9.104;2023-04-16T00:02:18;10.70;99.90
8105;DHT22;4095;48.942;9.104;2023-04-16T00:04:44;10.70;99.90
8105;DHT22;4095;48.942;9.104;2023-04-16T00:07:10;10.80;99.90
8105;DHT22;4095;48.942;9.104;2023-04-16T00:09:35;10.70;99.90
8105;DHT22;4095;48.942;9.104;2023-04-16T00:12:01;10.70;99.90
8105;DHT22;4095;48.942;9.104;2023-04-16T00:14:27;10.70;99.90
8105;DHT22;4095;48.942;9.104;2023-04-16T00:16:53;10.70;99.90
8105;DHT22;4095;48.942;9.104;2023-04-16T00:19:19;10.70;99.90
8105;DHT22;4095;48.942;9.104;2023-04-16T00:21:44;10.70;99.90
8105;DHT22;4095;48.942;9.104;2023-04-16T00:24:10;10.70;99.90
8105;DHT22;4095;48.942;9.104;2023-04-16T00:26:35;10.70;99.90
8105;DHT22;4095;48.942;9.104;2023-04-16T00:29:01;10.80;99.90
8105;DHT22;4095;48.942;9.104;2023-04-16T00:31:31;10.70;99.90
8105;DHT22;4095;48.942;9.104;2023-04-16T00:33:58;10.70;99.90
8105;DHT22;4095;48.942;9.104;2023-04-16T00:36:24;10.70;99.90
8105;DHT22;4095;48.942;9.104;2023-04-16T00:38:50;10.70;99.90
8105;DHT22;4095;48.942;9.104;2023-04-16T00:41:16;10.70;99.90
8105;DHT22;4095;48.942;9.104;2023-04-16T00:43:41;10.70;99.90
8105;DHT22;4095;48.942;9.104;2023-04-16T00:46:08;10.70;99.90
8105;DHT22;4095;48.942;9.104;2023-04-16T00:48:35;10.70;99.90
8105;DHT22;4095;48.942;9.104;2023-04-16T00:51:04;10.80;99.90
8105;DHT22;4095;48.942;9.104;2023-04-16T00:53:30;10.70;99.90
8105;DHT22;4095;48.942;9.104;2023-04-16T00:55:56;10.70;99.90
8105;DHT22;4095;48.942;9.104;2023-04-16T00:58:22;10.70;99.90
8105;DHT22;4095;48.942;9.104;2023-04-16T01:00:48;10.70;99.90
8105;DHT22;4095;48.942;9.104;2023-04-16T01:03:13;10.80;99.90
8105;DHT22;4095;48.942;9.104;2023-04-16T01:05:39;10.80;99.90
8105;DHT22;4095;48.942;9.104;2023-04-16T01:08:05;10.80;99.90
8105;DHT22;4095;48.942;9.104;2023-04-16T01:10:30;10.70;99.90
8105;DHT22;4095;48.942;9.104;2023-04-16T01:12:56;10.70;99.90
8105;DHT22;4095;48.942;9.104;2023-04-16T01:15:22;10.70;99.90
8105;DHT22;4095;48.942;9.104;2023-04-16T01:17:47;10.70;99.90
8105;DHT22;4095;48.942;9.104;2023-04-16T01:20:13;10.70;99.90
8105;DHT22;4095;48.942;9.104;2023-04-16T01:22:39;10.70;99.90
8105;DHT22;4095;48.942;9.104;2023-04-16T01:25:04;10.70;99.90
8105;DHT22;4095;48.942;9.104;2023-04-16T01:27:30;10.70;99.90
8105;DHT22;4095;48.942;9.104;2023-04-16T01:29:56;10.70;99.90
8105;DHT22;4095;48.942;9.104;2023-04-16T01:32:22;10.70;99.90
8105;DHT22;4095;48.942;9.104;2023-04-16T01:34:48;10.70;99.90
8105;DHT22;4095;48.942;9.104;2023-04-16T01:37:13;10.70;99.90
8105;DHT22;4095;48.942;9.104;2023-04-16T01:39:39;10.70;99.90
8105;DHT22;4095;48.942;9.104;2023-04-16T01:42:05;10.70;99.90
8105;DHT22;4095;48.942;9.104;2023-04-16T01:44:30;10.70;99.90
8105;DHT22;4095;48.942;9.104;2023-04-16T01:46:56;10.70;99.90
8105;DHT22;4095;48.942;9.104;2023-04-16T01:49:21;10.70;99.90
8105;DHT22;4095;48.942;9.104;2023-04-16T01:51:47;10.60;99.90
8105;DHT22;4095;48.942;9.104;2023-04-16T01:54:13;10.70;99.90
8105;DHT22;4095;48.942;9.104;2023-04-16T01:56:38;10.70;99.90
8105;DHT22;4095;48.942;9.104;2023-04-16T01:59:04;10.70;99.90
8105;DHT22;4095;48.942;9.104;2023-04-16T02:01:30;10.70;99.90
8105;DHT22;4095;48.942;9.104;2023-04-16T02:03:56;10.70;99.90
8105;DHT22;4095;48.942;9.104;2023-04-16T02:06:22;10.70;99.90
8105;DHT22;4095;48.942;9.104;2023-04-16T02:08:47;10.70;99.90
8105;DHT22;4095;48.942;9.104;2023-04-16T02:11:13;10.70;99.90
8105;DHT22;4095;48.942;9.104;2023-04-16T02:13:38;10.60;99.90
8105;DHT22;4095;48.942;9.104;2023-04-16T02:16:04;10.70;99.90
8105;DHT22;4095;48.942;9.104;2023-04-16T02:18:30;10.70;99.90
8105;DHT22;4095;48.942;9.104;2023-04-16T02:20:57;10.60;99.90
8105;DHT22;4095;48.942;9.104;2023-04-16T02:23:23;10.60;99.90
8105;DHT22;4095;48.942;9.104;2023-04-16T02:25:49;10.60;99.90
8105;DHT22;4095;48.942;9.104;2023-04-16T02:28:15;10.60;99.90
8105;DHT22;4095;48.942;9.104;2023-04-16T02:30:41;10.60;99.90
8105;DHT22;4095;48.942;9.104;2023-04-16T02:33:08;10.60;99.90
8105;DHT22;4095;48.942;9.104;2023-04-16T02:35:35;10.60;99.90
8105;DHT22;4095;48.942;9.104;2023-04-16T02:38:02;10.60;99.90
8105;DHT22;4095;48.942;9.104;2023-04-16T02:40:29;10.60;99.90
8105;DHT22;4095;48.942;9.104;2023-04-16T02:42:54;10.60;99.90
8105;DHT22;4095;48.942;9.104;2023-04-16T02:45:20;10.60;99.90
8105;DHT22;4095;48.942;9.104;2023-04-16T02:47:47;10.60;99.90
8105;DHT22;4095;48.942;9.104;2023-04-16T02:50:12;10.70;99.90
8105;DHT22;4095;48.942;9.104;2023-04-16T02:52:38;10.60;99.90
8105;DHT22;4095;48.942;9.104;2023-04-16T02:55:04;10.70;99.90
8105;DHT22;4095;48.942;9.104;2023-04-16T02:57:31;10.60;99.90
8105;DHT22;4095;48.942;9.104;2023-04-16T02:59:56;10.60;99.90
8105;DHT22;4095;48.942;9.104;2023-04-16T03:02:22;10.60;99.90
8105;DHT22;4095;48.942;9.104;2023-04-16T03:04:47;10.60;99.90
8105;DHT22;4095;48.942;9.104;2023-04-16T03:07:13;10.60;99.90
8105;DHT22;4095;48.942;9.104;2023-04-16T03:09:39;10.50;99.90
8105;DHT22;4095;48.942;9.104;2023-04-16T03:12:05;10.60;99.90
8105;DHT22;4095;48.942;9.104;2023-04-16T03:14:30;10.60;99.90
8105;DHT22;4095;48.942;9.104;2023-04-16T03:16:56;10.60;99.90
8105;DHT22;4095;48.942;9.104;2023-04-16T03:19:22;10.50;99.90
8105;DHT22;4095;48.942;9.104;2023-04-16T03:21:48;10.60;99.90
8105;DHT22;4095;48.942;9.104;2023-04-16T03:24:13;10.60;99.90
8105;DHT22;4095;48.942;9.104;2023-04-16T03:26:39;10.60;99.90
8105;DHT22;4095;48.942;9.104;2023-04-16T03:29:04;10.60;99.90
8105;DHT22;4095;48.942;9.104;2023-04-16T03:31:30;10.70;99.90
8105;DHT22;4095;48.942;9.104;2023-04-16T03:33:56;10.60;99.90
8105;DHT22;4095;48.942;9.104;2023-04-16T03:36:21;10.60;99.90
8105;DHT22;4095;48.942;9.104;2023-04-16T03:38:48;10.60;99.90
8105;DHT22;4095;48.942;9.104;2023-04-16T03:41:13;10.60;99.90
8105;DHT22;4095;48.942;9.104;2023-04-16T03:43:39;10.60;99.90
8105;DHT22;4095;48.942;9.104;2023-04-16T03:46:05;10.60;99.90
8105;DHT22;4095;48.942;9.104;2023-04-16T03:48:31;10.60;99.90
8105;DHT22;4095;48.942;9.104;2023-04-16T03:50:56;10.60;99.90
8105;DHT22;4095;48.942;9.104;2023-04-16T03:53:22;10.50;99.90
8105;DHT22;4095;48.942;9.104;2023-04-16T03:55:51;10.50;99.90
8105;DHT22;4095;48.942;9.104;2023-04-16T03:58:17;10.50;99.90
8105;DHT22;4095;48.942;9.104;2023-04-16T04:00:43;10.50;99.90
8105;DHT22;4095;48.942;9.104;2023-04-16T04:03:09;10.50;99.90
8105;DHT22;4095;48.942;9.104;2023-04-16T04:05:39;10.60;99.90
8105;DHT22;4095;48.942;9.104;2023-04-16T04:08:05;10.50;99.90
8105;DHT22;4095;48.942;9.104;2023-04-16T04:10:32;10.60;99.90
8105;DHT22;4095;48.942;9.104;2023-04-16T04:12:57;10.50;99.90
8105;DHT22;4095;48.942;9.104;2023-04-16T04:15:23;10.40;99.90
8105;DHT22;4095;48.942;9.104;2023-04-16T04:17:48;10.40;99.90
8105;DHT22;4095;48.942;9.104;2023-04-16T04:20:14;10.50;99.90
8105;DHT22;4095;48.942;9.104;2023-04-16T04:22:40;10.50;99.90
8105;DHT22;4095;48.942;9.104;2023-04-16T04:25:07;10.50;99.90
8105;DHT22;4095;48.942;9.104;2023-04-16T04:27:32;10.40;99.90
8105;DHT22;4095;48.942;9.104;2023-04-16T04:29:58;10.50;99.90
8105;DHT22;4095;48.942;9.104;2023-04-16T04:32:24;10.50;99.90
8105;DHT22;4095;48.942;9.104;2023-04-16T04:34:49;10.50;99.90
8105;DHT22;4095;48.942;9.104;2023-04-16T04:37:15;10.50;99.90
8105;DHT22;4095;48.942;9.104;2023-04-16T04:39:41;10.50;99.90
8105;DHT22;4095;48.942;9.104;2023-04-16T04:42:07;10.50;99.90
8105;DHT22;4095;48.942;9.104;2023-04-16T04:44:33;10.50;99.90
8105;DHT22;4095;48.942;9.104;2023-04-16T04:46:58;10.50;99.90
8105;DHT22;4095;48.942;9.104;2023-04-16T04:49:24;10.50;99.90
8105;DHT22;4095;48.942;9.104;2023-04-16T04:51:49;10.50;99.90
8105;DHT22;4095;48.942;9.104;2023-04-16T04:54:15;10.50;99.90
8105;DHT22;4095;48.942;9.104;2023-04-16T04:56:41;10.50;99.90
8105;DHT22;4095;48.942;9.104;2023-04-16T04:59:06;10.50;99.90
8105;DHT22;4095;48.942;9.104;2023-04-16T05:01:32;10.50;99.90
8105;DHT22;4095;48.942;9.104;2023-04-16T05:03:57;10.50;99.90
8105;DHT22;4095;48.942;9.104;2023-04-16T05:06:23;10.50;99.90
8105;DHT22;4095;48.942;9.104;2023-04-16T05:08:48;10.50;99.90
8105;DHT22;4095;48.942;9.104;2023-04-16T05:11:14;10.40;99.90
8105;DHT22;4095;48.942;9.104;2023-04-16T05:13:40;10.50;99.90
8105;DHT22;4095;48.942;9.104;2023-04-16T05:16:06;10.50;99.90
8105;DHT22;4095;48.942;9.104;2023-04-16T05:18:31;10.50;99.90
8105;DHT22;4095;48.942;9.104;2023-04-16T05:20:57;10.50;99.90
8105;DHT22;4095;48.942;9.104;2023-04-16T05:23:23;10.50;99.90
8105;DHT22;4095;48.942;9.104;2023-04-16T05:25:48;10.50;99.90
8105;DHT22;4095;48.942;9.104;2023-04-16T05:28:14;10.40;99.90
8105;DHT22;4095;48.942;9.104;2023-04-16T05:30:39;10.40;99.90
8105;DHT22;4095;48.942;9.104;2023-04-16T05:33:05;10.40;99.90
8105;DHT22;4095;48.942;9.104;2023-04-16T05:35:30;10.50;99.90
8105;DHT22;4095;48.942;9.104;2023-04-16T05:37:56;10.50;99.90
8105;DHT22;4095;48.942;9.104;2023-04-16T05:40:22;10.40;99.90
8105;DHT22;4095;48.942;9.104;2023-04-16T05:42:47;10.40;99.90
8105;DHT22;4095;48.942;9.104;2023-04-16T05:45:13;10.50;99.90
8105;DHT22;4095;48.942;9.104;2023-04-16T05:47:39;10.50;99.90
8105;DHT22;4095;48.942;9.104;2023-04-16T05:50:05;10.50;99.90
8105;DHT22;4095;48.942;9.104;2023-04-16T05:52:31;10.60;99.90
8105;DHT22;4095;48.942;9.104;2023-04-16T05:54:56;10.50;99.90
8105;DHT22;4095;48.942;9.104;2023-04-16T05:57:26;10.50;99.90
8105;DHT22;4095;48.942;9.104;2023-04-16T05:59:52;10.50;99.90
8105;DHT22;4095;48.942;9.104;2023-04-16T06:02:18;10.50;99.90
8105;DHT22;4095;48.942;9.104;2023-04-16T06:04:44;10.50;99.90
8105;DHT22;4095;48.942;9.104;2023-04-16T06:07:09;10.50;99.90
8105;DHT22;4095;48.942;9.104;2023-04-16T06:09:35;10.50;99.90
8105;DHT22;4095;48.942;9.104;2023-04-16T06:12:01;10.50;99.90
8105;DHT22;4095;48.942;9.104;2023-04-16T06:14:26;10.50;99.90
8105;DHT22;4095;48.942;9.104;2023-04-16T06:16:52;10.50;99.90
8105;DHT22;4095;48.942;9.104;2023-04-16T06:19:17;10.50;99.90
8105;DHT22;4095;48.942;9.104;2023-04-16T06:21:43;10.50;99.90
8105;DHT22;4095;48.942;9.104;2023-04-16T06:24:09;10.60;99.90
8105;DHT22;4095;48.942;9.104;2023-04-16T06:26:34;10.60;99.90
8105;DHT22;4095;48.942;9.104;2023-04-16T06:29:00;10.50;99.90
8105;DHT22;4095;48.942;9.104;2023-04-16T06:31:26;10.60;99.90
8105;DHT22;4095;48.942;9.104;2023-04-16T06:33:51;10.60;99.90
8105;DHT22;4095;48.942;9.104;2023-04-16T06:36:17;10.60;99.90
8105;DHT22;4095;48.942;9.104;2023-04-16T06:38:42;10.60;99.90
8105;DHT22;4095;48.942;9.104;2023-04-16T06:41:08;10.60;99.90
8105;DHT22;4095;48.942;9.104;2023-04-16T06:43:34;10.70;99.90
8105;DHT22;4095;48.942;9.104;2023-04-16T06:45:59;10.60;99.90
8105;DHT22;4095;48.942;9.104;2023-04-16T06:48:26;10.60;99.90
8105;DHT22;4095;48.942;9.104;2023-04-16T06:50:51;10.70;99.90
8105;DHT22;4095;48.942;9.104;2023-04-16T06:53:17;10.70;99.90
8105;DHT22;4095;48.942;9.104;2023-04-16T06:55:43;10.70;99.90
8105;DHT22;4095;48.942;9.104;2023-04-16T06:58:08;10.70;99.90
8105;DHT22;4095;48.942;9.104;2023-04-16T07:00:34;10.70;99.90
8105;DHT22;4095;48.942;9.104;2023-04-16T07:03:00;10.70;99.90
8105;DHT22;4095;48.942;9.104;2023-04-16T07:05:26;10.80;99.90
8105;DHT22;4095;48.942;9.104;2023-04-16T07:07:51;10.80;99.90
8105;DHT22;4095;48.942;9.104;2023-04-16T07:10:17;10.80;99.90
8105;DHT22;4095;48.942;9.104;2023-04-16T07:12:42;10.80;99.90
8105;DHT22;4095;48.942;9.104;2023-04-16T07:15:08;10.70;99.90
8105;DHT22;4095;48.942;9.104;2023-04-16T07:17:34;10.80;99.90
8105;DHT22;4095;48.942;9.104;2023-04-16T07:20:00;10.80;99.90
8105;DHT22;4095;48.942;9.104;2023-04-16T07:22:25;10.80;99.90
8105;DHT22;4095;48.942;9.104;2023-04-16T07:24:51;10.80;99.90
8105;DHT22;4095;48.942;9.104;2023-04-16T07:27:16;10.90;99.90
8105;DHT22;4095;48.942;9.104;2023-04-16T07:29:42;10.90;99.90
8105;DHT22;4095;48.942;9.104;2023-04-16T07:32:10;10.80;99.90
8105;DHT22;4095;48.942;9.104;2023-04-16T07:34:36;10.90;99.90
8105;DHT22;4095;48.942;9.104;2023-04-16T07:37:01;11.00;99.90
8105;DHT22;4095;48.942;9.104;2023-04-16T07:39:27;11.10;99.90
8105;DHT22;4095;48.942;9.104;2023-04-16T07:41:52;11.10;99.90
8105;DHT22;4095;48.942;9.104;2023-04-16T07:44:18;11.00;99.90
8105;DHT22;4095;48.942;9.104;2023-04-16T07:46:43;11.00;99.90
8105;DHT22;4095;48.942;9.104;2023-04-16T07:49:09;11.00;99.90
8105;DHT22;4095;48.942;9.104;2023-04-16T07:51:35;10.90;99.90
8105;DHT22;4095;48.942;9.104;2023-04-16T07:54:00;10.90;99.90
8105;DHT22;4095;48.942;9.104;2023-04-16T07:56:26;10.90;99.90
8105;DHT22;4095;48.942;9.104;2023-04-16T07:58:51;11.00;99.90
8105;DHT22;4095;48.942;9.104;2023-04-16T08:01:17;11.00;99.90
8105;DHT22;4095;48.942;9.104;2023-04-16T08:03:43;11.00;99.90
8105;DHT22;4095;48.942;9.104;2023-04-16T08:06:08;11.00;99.90
8105;DHT22;4095;48.942;9.104;2023-04-16T08:08:34;11.00;99.90
8105;DHT22;4095;48.942;9.104;2023-04-16T08:11:00;11.00;99.90
8105;DHT22;4095;48.942;9.104;2023-04-16T08:13:25;11.00;99.90
8105;DHT22;4095;48.942;9.104;2023-04-16T08:15:51;11.00;99.90
8105;DHT22;4095;48.942;9.104;2023-04-16T08:18:17;11.00;99.90
8105;DHT22;4095;48.942;9.104;2023-04-16T08:20:43;11.10;99.90
8105;DHT22;4095;48.942;9.104;2023-04-16T08:23:10;11.10;99.90
8105;DHT22;4095;48.942;9.104;2023-04-16T08:25:35;11.00;99.90
8105;DHT22;4095;48.942;9.104;2023-04-16T08:28:01;11.00;99.90
8105;DHT22;4095;48.942;9.104;2023-04-16T08:30:26;11.10;99.90
8105;DHT22;4095;48.942;9.104;2023-04-16T08:32:53;11.10;99.90
8105;DHT22;4095;48.942;9.104;2023-04-16T08:35:18;11.10;99.90
8105;DHT22;4095;48.942;9.104;2023-04-16T08:37:44;11.10;99.90
8105;DHT22;4095;48.942;9.104;2023-04-16T08:40:10;11.10;99.90
8105;DHT22;4095;48.942;9.104;2023-04-16T08:42:44;11.10;99.90
8105;DHT22;4095;48.942;9.104;2023-04-16T08:45:15;11.20;99.90
8105;DHT22;4095;48.942;9.104;2023-04-16T08:47:44;11.20;99.90
8105;DHT22;4095;48.942;9.104;2023-04-16T08:50:10;11.20;99.90
8105;DHT22;4095;48.942;9.104;2023-04-16T08:52:44;11.30;99.90
8105;DHT22;4095;48.942;9.104;2023-04-16T08:55:12;11.40;99.90
8105;DHT22;4095;48.942;9.104;2023-04-16T08:57:49;11.40;99.90
8105;DHT22;4095;48.942;9.104;2023-04-16T09:00:15;11.30;99.90
8105;DHT22;4095;48.942;9.104;2023-04-16T09:02:42;11.40;99.90
8105;DHT22;4095;48.942;9.104;2023-04-16T09:05:09;11.40;99.90
8105;DHT22;4095;48.942;9.104;2023-04-16T09:07:35;11.50;99.90
8105;DHT22;4095;48.942;9.104;2023-04-16T09:10:02;11.50;99.90
8105;DHT22;4095;48.942;9.104;2023-04-16T09:12:29;11.40;99.90
8105;DHT22;4095;48.942;9.104;2023-04-16T09:14:56;11.40;99.90
8105;DHT22;4095;48.942;9.104;2023-04-16T09:17:21;11.40;99.90
8105;DHT22;4095;48.942;9.104;2023-04-16T09:19:47;11.40;99.90
8105;DHT22;4095;48.942;9.104;2023-04-16T09:22:13;11.40;99.90
8105;DHT22;4095;48.942;9.104;2023-04-16T09:24:38;11.40;99.90
8105;DHT22;4095;48.942;9.104;2023-04-16T09:27:04;11.40;99.90
8105;DHT22;4095;48.942;9.104;2023-04-16T09:29:33;11.40;99.90
8105;DHT22;4095;48.942;9.104;2023-04-16T09:32:01;11.30;99.90
8105;DHT22;4095;48.942;9.104;2023-04-16T09:34:28;11.40;99.90
8105;DHT22;4095;48.942;9.104;2023-04-16T09:36:53;11.40;99.90
8105;DHT22;4095;48.942;9.104;2023-04-16T09:39:19;11.40;99.90
8105;DHT22;4095;48.942;9.104;2023-04-16T09:41:44;11.40;99.90
8105;DHT22;4095;48.942;9.104;2023-04-16T09:44:12;11.30;99.90
8105;DHT22;4095;48.942;9.104;2023-04-16T09:46:41;11.30;99.90
8105;DHT22;4095;48.942;9.104;2023-04-16T09:49:13;11.30;99.90
8105;DHT22;4095;48.942;9.104;2023-04-16T09:51:44;11.40;99.90
8105;DHT22;4095;48.942;9.104;2023-04-16T09:54:10;11.40;99.90
8105;DHT22;4095;48.942;9.104;2023-04-16T09:56:41;11.50;99.90
8105;DHT22;4095;48.942;9.104;2023-04-16T09:59:17;11.50;99.90
8105;DHT22;4095;48.942;9.104;2023-04-16T10:01:43;11.50;99.90
8105;DHT22;4095;48.942;9.104;2023-04-16T10:04:11;11.60;99.90
8105;DHT22;4095;48.942;9.104;2023-04-16T10:06:37;11.70;99.90
8105;DHT22;4095;48.942;9.104;2023-04-16T10:09:06;11.70;99.90
8105;DHT22;4095;48.942;9.104;2023-04-16T10:11:33;11.80;99.90
8105;DHT22;4095;48.942;9.104;2023-04-16T10:13:59;11.80;99.90
8105;DHT22;4095;48.942;9.104;2023-04-16T10:16:25;11.70;99.90
8105;DHT22;4095;48.942;9.104;2023-04-16T10:18:50;11.70;99.90
8105;DHT22;4095;48.942;9.104;2023-04-16T10:21:17;11.70;99.90
8105;DHT22;4095;48.942;9.104;2023-04-16T10:23:43;11.70;99.90
8105;DHT22;4095;48.942;9.104;2023-04-16T10:26:09;11.70;99.90
8105;DHT22;4095;48.942;9.104;2023-04-16T10:28:35;11.70;99.90
8105;DHT22;4095;48.942;9.104;2023-04-16T10:31:07;11.60;99.90
8105;DHT22;4095;48.942;9.104;2023-04-16T10:33:35;11.60;99.90
8105;DHT22;4095;48.942;9.104;2023-04-16T10:36:12;11.60;99.90
8105;DHT22;4095;48.942;9.104;2023-04-16T10:38:47;11.60;99.90
8105;DHT22;4095;48.942;9.104;2023-04-16T10:41:13;11.60;99.90
8105;DHT22;4095;48.942;9.104;2023-04-16T10:43:44;11.50;99.90
8105;DHT22;4095;48.942;9.104;2023-04-16T10:48:51;11.50;99.90
8105;DHT22;4095;48.942;9.104;2023-04-16T10:53:56;11.50;99.90
8105;DHT22;4095;48.942;9.104;2023-04-16T10:56:23;11.50;99.90
8105;DHT22;4095;48.942;9.104;2023-04-16T10:58:52;11.60;99.90
8105;DHT22;4095;48.942;9.104;2023-04-16T11:01:35;11.50;99.90
8105;DHT22;4095;48.942;9.104;2023-04-16T11:09:55;11.50;99.90
8105;DHT22;4095;48.942;9.104;2023-04-16T11:12:26;11.50;99.90
8105;DHT22;4095;48.942;9.104;2023-04-16T11:15:03;11.50;99.90
8105;DHT22;4095;48.942;9.104;2023-04-16T11:17:44;11.50;99.90
8105;DHT22;4095;48.942;9.104;2023-04-16T11:20:23;11.50;99.90
8105;DHT22;4095;48.942;9.104;2023-04-16T11:22:50;11.50;99.90
8105;DHT22;4095;48.942;9.104;2023-04-16T11:25:20;11.50;99.90
8105;DHT22;4095;48.942;9.104;2023-04-16T11:27:47;11.50;99.90
8105;DHT22;4095;48.942;9.104;2023-04-16T11:30:12;11.50;99.90
8105;DHT22;4095;48.942;9.104;2023-04-16T11:32:39;11.60;99.90
8105;DHT22;4095;48.942;9.104;2023-04-16T11:35:17;11.60;99.90
8105;DHT22;4095;48.942;9.104;2023-04-16T11:37:44;11.50;99.90
8105;DHT22;4095;48.942;9.104;2023-04-16T11:40:10;11.50;99.90
8105;DHT22;4095;48.942;9.104;2023-04-16T11:42:37;11.50;99.90
8105;DHT22;4095;48.942;9.104;2023-04-16T11:45:05;11.60;99.90
8105;DHT22;4095;48.942;9.104;2023-04-16T11:47:45;11.40;99.90
8105;DHT22;4095;48.942;9.104;2023-04-16T11:50:29;11.50;99.90
8105;DHT22;4095;48.942;9.104;2023-04-16T11:52:57;11.50;99.90
8105;DHT22;4095;48.942;9.104;2023-04-16T11:55:27;11.50;99.90
8105;DHT22;4095;48.942;9.104;2023-04-16T11:57:52;11.50;99.90
8105;DHT22;4095;48.942;9.104;2023-04-16T12:00:18;11.60;99.90
8105;DHT22;4095;48.942;9.104;2023-04-16T12:02:48;11.60;99.90
8105;DHT22;4095;48.942;9.104;2023-04-16T12:08:01;11.50;99.90
8105;DHT22;4095;48.942;9.104;2023-04-16T12:10:28;11.40;99.90
8105;DHT22;4095;48.942;9.104;2023-04-16T12:13:12;11.40;99.90
8105;DHT22;4095;48.942;9.104;2023-04-16T12:15:45;11.50;99.90
8105;DHT22;4095;48.942;9.104;2023-04-16T12:18:11;11.50;99.90
8105;DHT22;4095;48.942;9.104;2023-04-16T12:20:40;11.50;99.90
8105;DHT22;4095;48.942;9.104;2023-04-16T12:23:06;11.60;99.90
8105;DHT22;4095;48.942;9.104;2023-04-16T12:25:32;11.50;99.90
8105;DHT22;4095;48.942;9.104;2023-04-16T12:27:58;11.50;99.90
8105;DHT22;4095;48.942;9.104;2023-04-16T12:30:25;11.50;99.90
8105;DHT22;4095;48.942;9.104;2023-04-16T12:33:11;11.60;99.90
8105;DHT22;4095;48.942;9.104;2023-04-16T12:35:38;11.60;99.90
8105;DHT22;4095;48.942;9.104;2023-04-16T12:38:03;11.70;99.90
8105;DHT22;4095;48.942;9.104;2023-04-16T12:40:29;11.70;99.90
8105;DHT22;4095;48.942;9.104;2023-04-16T12:42:54;11.70;99.90
8105;DHT22;4095;48.942;9.104;2023-04-16T12:45:21;11.70;99.90
8105;DHT22;4095;48.942;9.104;2023-04-16T12:47:47;11.70;99.90
8105;DHT22;4095;48.942;9.104;2023-04-16T12:50:12;11.60;99.90
8105;DHT22;4095;48.942;9.104;2023-04-16T12:52:38;11.60;99.90
8105;DHT22;4095;48.942;9.104;2023-04-16T12:55:04;11.60;99.90
8105;DHT22;4095;48.942;9.104;2023-04-16T12:57:29;11.60;99.90
8105;DHT22;4095;48.942;9.104;2023-04-16T12:59:56;11.70;99.90
8105;DHT22;4095;48.942;9.104;2023-04-16T13:02:22;11.70;99.90
8105;DHT22;4095;48.942;9.104;2023-04-16T13:04:51;11.70;99.90
8105;DHT22;4095;48.942;9.104;2023-04-16T13:07:18;11.70;99.90
8105;DHT22;4095;48.942;9.104;2023-04-16T13:09:44;11.70;99.90
8105;DHT22;4095;48.942;9.104;2023-04-16T13:12:10;11.70;99.90
8105;DHT22;4095;48.942;9.104;2023-04-16T13:14:36;11.70;99.90
8105;DHT22;4095;48.942;9.104;2023-04-16T13:17:01;11.80;99.90
8105;DHT22;4095;48.942;9.104;2023-04-16T13:19:28;11.80;99.90
8105;DHT22;4095;48.942;9.104;2023-04-16T13:21:54;11.80;99.90
8105;DHT22;4095;48.942;9.104;2023-04-16T13:24:19;11.80;99.90
8105;DHT22;4095;48.942;9.104;2023-04-16T13:26:45;11.80;99.90
8105;DHT22;4095;48.942;9.104;2023-04-16T13:29:11;11.90;99.90
8105;DHT22;4095;48.942;9.104;2023-04-16T13:31:37;11.90;99.90
8105;DHT22;4095;48.942;9.104;2023-04-16T13:34:02;11.90;99.90
8105;DHT22;4095;48.942;9.104;2023-04-16T13:36:29;11.80;99.90
8105;DHT22;4095;48.942;9.104;2023-04-16T13:38:56;11.90;99.90
8105;DHT22;4095;48.942;9.104;2023-04-16T13:41:22;11.90;99.90
8105;DHT22;4095;48.942;9.104;2023-04-16T13:43:48;11.90;99.90
8105;DHT22;4095;48.942;9.104;2023-04-16T13:46:13;12.00;99.90
8105;DHT22;4095;48.942;9.104;2023-04-16T13:48:39;12.10;99.90
8105;DHT22;4095;48.942;9.104;2023-04-16T13:51:05;12.10;99.90
8105;DHT22;4095;48.942;9.104;2023-04-16T13:53:30;12.00;99.90
8105;DHT22;4095;48.942;9.104;2023-04-16T13:55:56;12.10;99.90
8105;DHT22;4095;48.942;9.104;2023-04-16T13:58:21;12.00;99.90
8105;DHT22;4095;48.942;9.104;2023-04-16T14:00:47;12.00;99.90
8105;DHT22;4095;48.942;9.104;2023-04-16T14:03:12;11.90;99.90
8105;DHT22;4095;48.942;9.104;2023-04-16T14:05:38;11.90;99.90
8105;DHT22;4095;48.942;9.104;2023-04-16T14:08:04;11.90;99.90
8105;DHT22;4095;48.942;9.104;2023-04-16T14:10:30;12.00;99.90
8105;DHT22;4095;48.942;9.104;2023-04-16T14:12:57;11.90;99.90
8105;DHT22;4095;48.942;9.104;2023-04-16T14:15:22;11.90;99.90
8105;DHT22;4095;48.942;9.104;2023-04-16T14:17:50;11.90;99.90
8105;DHT22;4095;48.942;9.104;2023-04-16T14:20:16;11.90;99.90
8105;DHT22;4095;48.942;9.104;2023-04-16T14:22:42;11.90;99.90
8105;DHT22;4095;48.942;9.104;2023-04-16T14:25:08;11.90;99.90
8105;DHT22;4095;48.942;9.104;2023-04-16T14:27:34;11.90;99.90
8105;DHT22;4095;48.942;9.104;2023-04-16T14:30:00;11.90;99.90
8105;DHT22;4095;48.942;9.104;2023-04-16T14:32:26;11.90;99.90
8105;DHT22;4095;48.942;9.104;2023-04-16T14:34:51;11.90;99.90
8105;DHT22;4095;48.942;9.104;2023-04-16T14:37:17;11.90;99.90
8105;DHT22;4095;48.942;9.104;2023-04-16T14:39:43;11.90;99.90
8105;DHT22;4095;48.942;9.104;2023-04-16T14:42:08;11.90;99.90
8105;DHT22;4095;48.942;9.104;2023-04-16T14:44:35;11.90;99.90
8105;DHT22;4095;48.942;9.104;2023-04-16T14:47:00;11.90;99.90
8105;DHT22;4095;48.942;9.104;2023-04-16T14:49:26;11.90;99.90
8105;DHT22;4095;48.942;9.104;2023-04-16T14:51:51;12.00;99.90
8105;DHT22;4095;48.942;9.104;2023-04-16T14:54:19;11.90;99.90
8105;DHT22;4095;48.942;9.104;2023-04-16T14:56:45;11.90;99.90
8105;DHT22;4095;48.942;9.104;2023-04-16T14:59:11;12.00;99.90
8105;DHT22;4095;48.942;9.104;2023-04-16T15:01:37;11.90;99.90
8105;DHT22;4095;48.942;9.104;2023-04-16T15:04:06;11.90;99.90
8105;DHT22;4095;48.942;9.104;2023-04-16T15:06:32;11.90;99.90
8105;DHT22;4095;48.942;9.104;2023-04-16T15:08:58;11.80;99.90
8105;DHT22;4095;48.942;9.104;2023-04-16T15:11:24;11.80;99.90
8105;DHT22;4095;48.942;9.104;2023-04-16T15:13:49;11.80;99.90
8105;DHT22;4095;48.942;9.104;2023-04-16T15:16:16;11.90;99.90
8105;DHT22;4095;48.942;9.104;2023-04-16T15:18:41;11.90;99.90
8105;DHT22;4095;48.942;9.104;2023-04-16T15:21:07;11.90;99.90
8105;DHT22;4095;48.942;9.104;2023-04-16T15:23:33;11.90;99.90
8105;DHT22;4095;48.942;9.104;2023-04-16T15:25:58;11.90;99.90
8105;DHT22;4095;48.942;9.104;2023-04-16T15:28:24;11.90;99.90
8105;DHT22;4095;48.942;9.104;2023-04-16T15:30:50;11.90;99.90
8105;DHT22;4095;48.942;9.104;2023-04-16T15:33:16;11.90;99.90
8105;DHT22;4095;48.942;9.104;2023-04-16T15:35:42;12.00;99.90
8105;DHT22;4095;48.942;9.104;2023-04-16T15:38:08;11.90;99.90
8105;DHT22;4095;48.942;9.104;2023-04-16T15:40:34;11.90;99.90
8105;DHT22;4095;48.942;9.104;2023-04-16T15:43:01;11.90;99.90
8105;DHT22;4095;48.942;9.104;2023-04-16T15:45:26;11.90;99.90
8105;DHT22;4095;48.942;9.104;2023-04-16T15:47:53;11.90;99.90
8105;DHT22;4095;48.942;9.104;2023-04-16T15:50:19;11.90;99.90
8105;DHT22;4095;48.942;9.104;2023-04-16T15:52:45;11.90;99.90
8105;DHT22;4095;48.942;9.104;2023-04-16T15:55:11;12.00;99.90
8105;DHT22;4095;48.942;9.104;2023-04-16T15:57:37;12.00;99.90
8105;DHT22;4095;48.942;9.104;2023-04-16T16:00:03;12.00;99.90
8105;DHT22;4095;48.942;9.104;2023-04-16T16:02:40;12.00;99.90
8105;DHT22;4095;48.942;9.104;2023-04-16T16:05:09;12.00;99.90
8105;DHT22;4095;48.942;9.104;2023-04-16T16:07:35;12.00;99.90
8105;DHT22;4095;48.942;9.104;2023-04-16T16:10:01;12.10;99.90
8105;DHT22;4095;48.942;9.104;2023-04-16T16:12:26;12.00;99.90